Time;durP1;ratioP1;P1;durP2;ratioP2;P2;SDS_P1;SDS_P2;PMS_P1;PMS_P2;Temp;Humidity;BMP_temperature;BMP_pressure;BME280_temperature;BME280_humidity;BME280_pressure;Samples;Min_cycle;Max_cycle;Signal;HPM_P1;HPM_P2
2022/05/08 00:01:08;;;;;;;26.95;5.20;;;8.10;99.90;;;;;;4956598;28;31208;-73
2022/05/08 00:03:34;;;;;;;28.20;5.30;;;8.10;99.90;;;;;;4933567;28;20113;-74
2022/05/08 00:06:06;;;;;;;24.25;4.97;;;8.10;99.90;;;;;;4968383;28;146311;-74
2022/05/08 00:08:32;;;;;;;26.55;5.05;;;8.10;99.90;;;;;;4948867;28;20536;-71
2022/05/08 00:10:58;;;;;;;27.40;5.50;;;8.10;99.90;;;;;;4958600;28;33591;-73
2022/05/08 00:13:25;;;;;;;31.88;5.60;;;8.00;99.90;;;;;;4959263;28;20610;-73
2022/05/08 00:15:51;;;;;;;24.35;5.30;;;8.00;99.90;;;;;;4945914;28;124148;-73
2022/05/08 00:18:17;;;;;;;22.35;4.80;;;8.00;99.90;;;;;;4984057;28;20050;-73
2022/05/08 00:20:43;;;;;;;23.95;5.45;;;7.90;99.90;;;;;;4959981;28;57009;-72
2022/05/08 00:23:09;;;;;;;24.27;4.65;;;7.90;99.90;;;;;;4957707;28;20062;-72
2022/05/08 00:25:35;;;;;;;18.92;4.45;;;7.90;99.90;;;;;;4943656;28;251323;-72
2022/05/08 00:28:02;;;;;;;21.83;4.43;;;7.80;99.90;;;;;;4986532;28;20058;-73
2022/05/08 00:30:28;;;;;;;20.00;4.30;;;7.80;99.90;;;;;;4975694;28;33393;-73
2022/05/08 00:32:54;;;;;;;24.90;5.40;;;7.80;99.90;;;;;;4976523;28;20093;-73
2022/05/08 00:35:20;;;;;;;28.58;6.18;;;7.80;99.90;;;;;;4955966;28;60480;-74
2022/05/08 00:37:47;;;;;;;27.27;5.38;;;7.70;99.90;;;;;;4960606;28;20059;-74
2022/05/08 00:40:13;;;;;;;27.40;5.78;;;7.70;99.90;;;;;;4959937;28;157828;-73
2022/05/08 00:42:41;;;;;;;23.45;4.68;;;7.70;99.90;;;;;;4956209;28;20070;-73
2022/05/08 00:45:08;;;;;;;23.25;4.60;;;7.60;99.90;;;;;;4963851;28;228860;-72
2022/05/08 00:47:35;;;;;;;26.30;4.97;;;7.50;99.90;;;;;;4983482;28;20067;-72
2022/05/08 00:50:01;;;;;;;29.45;5.57;;;7.50;99.90;;;;;;4953784;28;20057;-72
2022/05/08 00:52:29;;;;;;;24.63;5.25;;;7.50;99.90;;;;;;4965876;28;20063;-74
2022/05/08 00:54:56;;;;;;;25.80;5.15;;;7.50;99.90;;;;;;4940113;28;96377;-72
2022/05/08 00:57:22;;;;;;;25.63;5.47;;;7.40;99.90;;;;;;4986426;28;20055;-74
2022/05/08 00:59:48;;;;;;;24.88;4.70;;;7.40;99.90;;;;;;4940078;28;88637;-73
2022/05/08 01:02:15;;;;;;;30.50;5.30;;;7.40;99.90;;;;;;4959366;28;20063;-73
2022/05/08 01:04:41;;;;;;;26.17;5.10;;;7.40;99.90;;;;;;4946807;28;199346;-73
2022/05/08 01:07:07;;;;;;;25.15;5.15;;;7.30;99.90;;;;;;4964487;28;20510;-73
2022/05/08 01:09:33;;;;;;;22.88;5.40;;;7.20;99.90;;;;;;4974898;28;68535;-73
2022/05/08 01:11:59;;;;;;;24.52;5.15;;;7.20;99.90;;;;;;4990482;28;20383;-74
2022/05/08 01:14:25;;;;;;;27.15;5.10;;;7.20;99.90;;;;;;4926796;28;99821;-73
2022/05/08 01:16:51;;;;;;;23.90;4.82;;;7.20;99.90;;;;;;4966564;28;20145;-73
2022/05/08 01:19:18;;;;;;;22.17;5.85;;;7.20;99.90;;;;;;4940877;28;202999;-72
2022/05/08 01:21:44;;;;;;;24.30;5.05;;;7.10;99.90;;;;;;4958712;28;20062;-72
2022/05/08 01:24:14;;;;;;;26.43;5.80;;;7.10;99.90;;;;;;4948570;28;181156;-73
2022/05/08 01:26:40;;;;;;;27.98;5.80;;;7.10;99.90;;;;;;4970860;28;20597;-72
2022/05/08 01:29:06;;;;;;;22.02;4.78;;;7.00;99.90;;;;;;4922311;28;137719;-72
2022/05/08 01:31:33;;;;;;;23.33;5.60;;;7.00;99.90;;;;;;4993942;28;20046;-73
2022/05/08 01:33:59;;;;;;;33.60;6.90;;;7.00;99.90;;;;;;4940895;28;217379;-73
2022/05/08 01:36:26;;;;;;;29.70;6.35;;;6.90;99.90;;;;;;4973627;28;20078;-73
2022/05/08 01:38:52;;;;;;;28.02;6.55;;;6.90;99.90;;;;;;4941974;28;20053;-73
2022/05/08 01:41:18;;;;;;;30.10;6.28;;;6.90;99.90;;;;;;4963355;28;83020;-73
2022/05/08 01:43:44;;;;;;;19.85;5.22;;;6.80;99.90;;;;;;4932963;28;20045;-73
2022/05/08 01:46:12;;;;;;;28.05;5.80;;;6.80;99.90;;;;;;4937808;28;190972;-72
2022/05/08 01:48:38;;;;;;;23.63;5.47;;;6.80;99.90;;;;;;4936150;28;20063;-73
2022/05/08 01:51:04;;;;;;;24.98;5.78;;;6.80;99.90;;;;;;4955905;28;20043;-73
2022/05/08 01:53:32;;;;;;;28.13;6.03;;;6.70;99.90;;;;;;4929802;28;20066;-73
2022/05/08 01:55:59;;;;;;;31.02;6.30;;;6.70;99.90;;;;;;4991727;28;41349;-72
2022/05/08 01:58:27;;;;;;;24.77;5.70;;;6.70;99.90;;;;;;4931112;28;20507;-73
2022/05/08 02:00:55;;;;;;;20.80;5.28;;;6.60;99.90;;;;;;4979868;28;22907;-73
2022/05/08 02:03:23;;;;;;;21.92;5.45;;;6.70;99.90;;;;;;4939754;28;20048;-71
2022/05/08 02:05:49;;;;;;;24.45;5.72;;;6.60;99.90;;;;;;4947319;28;189279;-73
2022/05/08 02:08:15;;;;;;;21.10;5.45;;;6.60;99.90;;;;;;4957496;28;20061;-74
2022/05/08 02:10:42;;;;;;;22.40;6.13;;;6.60;99.90;;;;;;4919921;28;62711;-74
2022/05/08 02:13:08;;;;;;;22.75;6.05;;;6.50;99.90;;;;;;4970667;28;20046;-74
2022/05/08 02:15:35;;;;;;;25.02;6.55;;;6.50;99.90;;;;;;4933538;28;233779;-73
2022/05/08 02:18:03;;;;;;;26.83;6.15;;;6.50;99.90;;;;;;4960792;28;20404;-73
2022/05/08 02:20:30;;;;;;;20.55;5.57;;;6.50;99.90;;;;;;4951064;28;139453;-74
2022/05/08 02:22:56;;;;;;;24.95;5.43;;;6.50;99.90;;;;;;4973995;28;20929;-74
2022/05/08 02:25:23;;;;;;;23.08;5.38;;;6.50;99.90;;;;;;4961910;28;144984;-74
2022/05/08 02:27:51;;;;;;;25.83;5.30;;;6.40;99.90;;;;;;4993947;28;20166;-74
2022/05/08 02:30:20;;;;;;;20.92;5.63;;;6.40;99.90;;;;;;4948226;28;192570;-74
2022/05/08 02:32:47;;;;;;;23.60;5.57;;;6.40;99.90;;;;;;4957003;28;20528;-74
2022/05/08 02:35:13;;;;;;;22.63;5.25;;;6.30;99.90;;;;;;4941198;28;147965;-74
2022/05/08 02:37:40;;;;;;;22.55;5.55;;;6.40;99.90;;;;;;4954732;28;20070;-72
2022/05/08 02:40:08;;;;;;;28.45;6.32;;;6.30;99.90;;;;;;4945421;28;116868;-73
2022/05/08 02:42:36;;;;;;;17.30;5.13;;;6.30;99.90;;;;;;4961272;28;20069;-73
2022/05/08 02:45:08;;;;;;;20.05;5.18;;;6.20;99.90;;;;;;4923274;28;228324;-73
2022/05/08 02:47:36;;;;;;;22.27;5.35;;;6.20;99.90;;;;;;4969331;28;20961;-73
2022/05/08 02:50:06;;;;;;;27.27;5.55;;;6.20;99.90;;;;;;4953956;28;95807;-72
2022/05/08 02:52:32;;;;;;;22.10;5.43;;;6.20;99.90;;;;;;4975836;28;20051;-72
2022/05/08 02:58:32;;;;;;;24.45;5.65;;;6.20;99.90;;;;;;4960917;28;115923;-74
2022/05/08 03:00:36;;;;;;;24.13;5.97;;;6.10;99.90;;;;;;4922412;28;169124;-72
2022/05/08 03:03:05;;;;;;;28.65;6.35;;;6.10;99.90;;;;;;4978501;28;20809;-73
2022/05/08 03:05:31;;;;;;;26.10;5.63;;;6.10;99.90;;;;;;4918635;28;280226;-74
2022/05/08 03:07:57;;;;;;;24.25;5.22;;;6.00;99.90;;;;;;4990887;28;20051;-73
2022/05/08 03:10:23;;;;;;;23.90;5.55;;;6.00;99.90;;;;;;4981215;28;226226;-73
2022/05/08 03:12:50;;;;;;;30.48;5.60;;;6.00;99.90;;;;;;4965925;28;20535;-73
2022/05/08 03:15:16;;;;;;;20.02;5.63;;;6.00;99.90;;;;;;4961001;28;102440;-74
2022/05/08 03:17:43;;;;;;;21.85;5.53;;;6.00;99.90;;;;;;4957154;28;20051;-73
2022/05/08 03:20:11;;;;;;;22.50;5.53;;;6.00;99.90;;;;;;4957301;28;78319;-73
2022/05/08 03:22:37;;;;;;;22.63;5.72;;;5.90;99.90;;;;;;4971962;28;20050;-73
2022/05/08 03:25:03;;;;;;;20.17;5.55;;;5.90;99.90;;;;;;4959028;28;59127;-73
2022/05/08 03:27:30;;;;;;;23.05;5.90;;;5.90;99.90;;;;;;4963130;28;20085;-74
2022/05/08 03:29:58;;;;;;;24.20;5.65;;;5.90;99.90;;;;;;4960000;28;247274;-73
2022/05/08 03:32:24;;;;;;;20.38;5.30;;;5.90;99.90;;;;;;4996539;28;20054;-73
2022/05/08 03:34:50;;;;;;;23.00;5.60;;;5.80;99.90;;;;;;4953535;28;20046;-73
2022/05/08 03:37:16;;;;;;;19.60;5.13;;;5.80;99.90;;;;;;4977449;28;20053;-73
2022/05/08 03:39:43;;;;;;;19.80;4.97;;;5.80;99.90;;;;;;4935932;28;240867;-73
2022/05/08 03:42:09;;;;;;;25.00;5.78;;;5.80;99.90;;;;;;4970618;28;20416;-74
2022/05/08 03:44:37;;;;;;;22.95;5.40;;;5.70;99.90;;;;;;4943617;28;80731;-74
2022/05/08 03:47:03;;;;;;;20.40;4.72;;;5.70;99.90;;;;;;4972219;28;20074;-74
2022/05/08 03:49:29;;;;;;;20.20;5.50;;;5.70;99.90;;;;;;4931612;28;190766;-74
2022/05/08 03:51:56;;;;;;;18.90;4.85;;;5.70;99.90;;;;;;5002245;28;20449;-74
2022/05/08 03:54:22;;;;;;;22.88;4.97;;;5.70;99.90;;;;;;4963700;28;35080;-74
2022/05/08 03:56:48;;;;;;;24.02;5.45;;;5.70;99.90;;;;;;4984664;28;20431;-73
2022/05/08 03:59:14;;;;;;;23.60;4.73;;;5.70;99.90;;;;;;4935253;28;146725;-73
2022/05/08 04:01:41;;;;;;;15.10;4.43;;;5.70;99.90;;;;;;4982949;28;20492;-73
2022/05/08 04:04:08;;;;;;;21.58;5.35;;;5.70;99.90;;;;;;4949137;28;95961;-73
2022/05/08 04:06:34;;;;;;;22.55;5.30;;;5.70;99.90;;;;;;4992682;28;20465;-73
2022/05/08 04:09:00;;;;;;;24.45;5.68;;;5.70;99.90;;;;;;4923124;28;306651;-72
2022/05/08 04:11:29;;;;;;;17.48;5.00;;;5.70;99.90;;;;;;5003065;28;20059;-72
2022/05/08 04:13:56;;;;;;;20.63;4.82;;;5.70;99.90;;;;;;4963512;28;95800;-71
2022/05/08 04:16:24;;;;;;;24.02;5.68;;;5.70;99.90;;;;;;4976008;28;20069;-72
2022/05/08 04:18:51;;;;;;;20.25;4.88;;;5.70;99.90;;;;;;4969510;28;20042;-72
2022/05/08 04:21:17;;;;;;;18.00;4.53;;;5.70;99.90;;;;;;4972543;28;85829;-73
2022/05/08 04:26:30;;;;;;;21.13;5.00;;;5.80;99.90;;;;;;4947711;28;20061;-72
2022/05/08 04:28:57;;;;;;;21.80;5.72;;;5.90;99.90;;;;;;4951299;28;20064;-71
2022/05/08 04:31:23;;;;;;;16.58;4.65;;;5.90;99.90;;;;;;4968549;28;20243;-73
2022/05/08 04:33:49;;;;;;;16.98;4.75;;;6.00;99.90;;;;;;4945221;28;20045;-73
2022/05/08 04:36:17;;;;;;;20.77;4.53;;;6.00;99.90;;;;;;4958812;28;38605;-73
2022/05/08 04:38:43;;;;;;;17.35;4.90;;;6.00;99.90;;;;;;4941983;28;20050;-73
2022/05/08 04:41:09;;;;;;;19.83;4.75;;;6.10;99.90;;;;;;4976821;28;130025;-73
2022/05/08 04:43:35;;;;;;;18.67;4.90;;;6.10;99.90;;;;;;4971165;28;20055;-73
2022/05/08 04:46:01;;;;;;;20.67;5.40;;;6.20;99.90;;;;;;4947298;28;163202;-73
2022/05/08 04:48:28;;;;;;;22.30;5.57;;;6.20;99.90;;;;;;4936078;28;20073;-73
2022/05/08 04:50:54;;;;;;;19.92;5.68;;;6.30;99.90;;;;;;4967911;28;20563;-72
2022/05/08 04:53:20;;;;;;;16.35;4.07;;;6.30;99.90;;;;;;4973545;28;20050;-75
2022/05/08 04:55:46;;;;;;;18.70;5.10;;;6.40;99.90;;;;;;4951279;28;60955;-74
2022/05/08 04:58:12;;;;;;;21.08;5.32;;;6.40;99.90;;;;;;4970651;28;20055;-72
2022/05/08 05:00:39;;;;;;;15.75;4.93;;;6.50;99.90;;;;;;4938502;28;71005;-73
2022/05/08 05:03:05;;;;;;;16.25;5.38;;;6.50;99.90;;;;;;4996257;28;20059;-74
2022/05/08 05:05:31;;;;;;;21.33;5.60;;;6.60;99.90;;;;;;4938356;28;180152;-73
2022/05/08 05:07:57;;;;;;;18.30;5.10;;;6.70;99.90;;;;;;4960534;28;20448;-74
2022/05/08 05:10:23;;;;;;;19.17;5.10;;;6.70;99.90;;;;;;4947056;28;249959;-73
2022/05/08 05:12:49;;;;;;;21.52;5.00;;;6.80;99.90;;;;;;4960777;28;20050;-73
2022/05/08 05:15:16;;;;;;;24.58;5.55;;;6.80;99.90;;;;;;4949834;28;224206;-73
2022/05/08 05:17:42;;;;;;;21.77;5.40;;;6.90;99.90;;;;;;4954819;28;20054;-72
2022/05/08 05:20:09;;;;;;;18.15;5.15;;;7.00;99.90;;;;;;4923257;28;228446;-72
2022/05/08 05:22:35;;;;;;;16.88;5.07;;;7.00;99.90;;;;;;4961867;28;20069;-73
2022/05/08 05:25:03;;;;;;;21.83;5.82;;;7.00;99.90;;;;;;4942464;28;96233;-73
2022/05/08 05:27:29;;;;;;;17.85;6.00;;;7.10;99.90;;;;;;4968327;28;20055;-73
2022/05/08 05:29:56;;;;;;;22.13;5.70;;;7.10;99.90;;;;;;4928912;28;207320;-72
2022/05/08 05:32:23;;;;;;;23.33;5.50;;;7.20;99.90;;;;;;4972991;28;20054;-73
2022/05/08 05:34:49;;;;;;;21.48;5.63;;;7.30;99.90;;;;;;4941449;28;182413;-73
2022/05/08 05:37:15;;;;;;;16.90;5.68;;;7.40;99.90;;;;;;4989510;28;20412;-73
2022/05/08 05:39:41;;;;;;;21.83;5.57;;;7.50;99.90;;;;;;4943465;28;67409;-73
2022/05/08 05:42:08;;;;;;;20.13;5.18;;;7.60;99.90;;;;;;4966119;28;20535;-74
2022/05/08 05:44:34;;;;;;;22.42;5.20;;;7.70;99.90;;;;;;4931886;28;139668;-72
2022/05/08 05:49:45;;;;;;;22.58;4.60;;;8.00;99.90;;;;;;4944087;28;42401;-72
2022/05/08 05:52:11;;;;;;;17.70;4.15;;;8.20;99.90;;;;;;4945257;28;20349;-72
2022/05/08 05:54:37;;;;;;;16.70;4.00;;;8.60;99.90;;;;;;4946934;28;70537;-73
2022/05/08 05:57:03;;;;;;;17.73;4.40;;;8.90;99.90;;;;;;4990131;28;20069;-74
2022/05/08 05:59:30;;;;;;;16.70;4.07;;;9.10;99.90;;;;;;4939436;28;190794;-74
2022/05/08 06:01:56;;;;;;;17.33;3.97;;;9.20;99.90;;;;;;4962199;28;20513;-72
2022/05/08 06:04:22;;;;;;;17.83;3.65;;;9.20;99.90;;;;;;4929497;28;125268;-72
2022/05/08 06:06:49;;;;;;;16.45;3.85;;;9.40;99.90;;;;;;4978746;28;20062;-73
2022/05/08 06:09:15;;;;;;;20.33;3.95;;;9.40;99.90;;;;;;4923975;28;232759;-74
2022/05/08 06:11:41;;;;;;;17.13;3.88;;;9.70;99.90;;;;;;4981143;28;20070;-72
2022/05/08 06:14:07;;;;;;;17.05;4.30;;;9.80;99.90;;;;;;4922506;28;200616;-74
2022/05/08 06:16:33;;;;;;;18.08;3.45;;;9.80;99.90;;;;;;4957160;28;20051;-73
2022/05/08 06:19:00;;;;;;;12.20;2.80;;;10.00;99.90;;;;;;4953191;28;38226;-74
2022/05/08 06:21:26;;;;;;;14.13;3.13;;;10.30;99.90;;;;;;4979798;28;20689;-73
2022/05/08 06:23:54;;;;;;;16.27;3.00;;;10.30;99.90;;;;;;4960006;28;20065;-73
2022/05/08 06:26:20;;;;;;;14.10;2.95;;;10.30;99.90;;;;;;4972541;28;108246;-73
2022/05/08 06:28:48;;;;;;;14.95;3.00;;;10.50;99.90;;;;;;4960868;28;20061;-75
2022/05/08 06:31:17;;;;;;;10.27;2.53;;;10.80;99.90;;;;;;4976870;28;129719;-73
2022/05/08 06:33:44;;;;;;;16.50;2.95;;;11.10;99.90;;;;;;4947724;28;20050;-73
2022/05/08 06:36:11;;;;;;;13.93;2.90;;;11.40;99.90;;;;;;4983654;28;22137;-72
2022/05/08 06:38:37;;;;;;;16.25;2.55;;;11.80;99.90;;;;;;4961887;28;20140;-70
2022/05/08 06:41:03;;;;;;;14.95;2.22;;;12.00;99.90;;;;;;4952653;28;273460;-73
2022/05/08 06:43:30;;;;;;;14.88;2.45;;;12.20;99.90;;;;;;4930311;28;20076;-72
2022/05/08 06:45:56;;;;;;;14.15;2.55;;;12.10;99.90;;;;;;4979254;28;253640;-74
2022/05/08 06:48:22;;;;;;;14.65;2.58;;;11.90;99.90;;;;;;4929764;28;20051;-71
2022/05/08 06:50:48;;;;;;;12.13;2.35;;;11.70;99.90;;;;;;4943884;28;189071;-72
2022/05/08 06:53:15;;;;;;;11.25;2.35;;;11.50;99.90;;;;;;4954110;28;20062;-71
2022/05/08 06:55:43;;;;;;;13.27;2.45;;;11.50;99.90;;;;;;4967958;28;49465;-73
2022/05/08 06:58:09;;;;;;;14.77;2.30;;;11.30;99.90;;;;;;4971250;28;21122;-74
2022/05/08 07:03:20;;;;;;;13.25;2.17;;;11.60;99.90;;;;;;4942815;28;20050;-75
2022/05/08 07:05:47;;;;;;;14.20;2.22;;;11.70;99.90;;;;;;4958881;28;148964;-72
2022/05/08 07:08:14;;;;;;;15.52;2.15;;;11.70;99.90;;;;;;4978876;28;20062;-73
2022/05/08 07:10:41;;;;;;;13.38;2.10;;;11.80;99.90;;;;;;4967823;28;93350;-71
2022/05/08 07:13:07;;;;;;;12.50;2.03;;;11.90;99.90;;;;;;4958153;28;20055;-72
2022/05/08 07:15:34;;;;;;;13.48;2.40;;;12.00;99.90;;;;;;4952607;28;85933;-71
2022/05/08 07:18:00;;;;;;;13.73;2.13;;;12.10;99.90;;;;;;5009520;28;20098;-72
2022/05/08 07:20:26;;;;;;;13.52;2.13;;;12.10;99.90;;;;;;4962527;28;32417;-72
2022/05/08 07:22:52;;;;;;;13.95;2.00;;;12.00;99.90;;;;;;4990272;28;20073;-73
2022/05/08 07:25:18;;;;;;;15.63;2.45;;;12.00;99.90;;;;;;4929305;28;78080;-73
2022/05/08 07:27:45;;;;;;;10.95;1.80;;;12.00;99.90;;;;;;4954056;28;20046;-71
2022/05/08 07:30:11;;;;;;;14.88;2.22;;;11.90;99.90;;;;;;4966214;28;275963;-71
2022/05/08 07:32:38;;;;;;;14.73;2.15;;;11.70;99.90;;;;;;4960945;28;20067;-72
2022/05/08 07:37:49;;;;;;;15.57;1.98;;;12.20;99.90;;;;;;4989729;28;20481;-72
2022/05/08 07:40:15;;;;;;;16.02;2.30;;;12.80;99.90;;;;;;4948386;28;233559;-72
2022/05/08 07:42:41;;;;;;;14.25;2.03;;;13.20;99.90;;;;;;4964968;28;20061;-73
2022/05/08 07:45:08;;;;;;;13.30;2.10;;;13.10;99.90;;;;;;4956529;28;153482;-72
2022/05/08 07:47:34;;;;;;;12.98;2.40;;;12.90;99.40;;;;;;4978394;28;20061;-71
2022/05/08 07:50:00;;;;;;;11.82;2.25;;;13.20;99.90;;;;;;4950886;28;183485;-73
2022/05/08 07:52:27;;;;;;;13.40;2.33;;;13.50;99.90;;;;;;4959229;28;21141;-72
2022/05/08 07:54:53;;;;;;;14.13;2.05;;;13.50;98.80;;;;;;4946180;28;31641;-71
2022/05/08 07:57:19;;;;;;;16.60;2.33;;;13.40;99.40;;;;;;4966568;28;20055;-75
2022/05/08 07:59:45;;;;;;;15.45;2.05;;;13.80;98.60;;;;;;4947984;28;260398;-72
2022/05/08 08:02:11;;;;;;;13.60;2.28;;;14.30;99.70;;;;;;4963988;28;20130;-74
2022/05/08 08:04:38;;;;;;;11.68;1.95;;;14.90;99.90;;;;;;4943414;28;145258;-73
2022/05/08 08:07:04;;;;;;;12.45;2.28;;;15.40;98.70;;;;;;4983034;28;20448;-74
2022/05/08 08:09:30;;;;;;;13.15;2.22;;;15.70;97.40;;;;;;4929071;28;20617;-73
2022/05/08 08:11:57;;;;;;;15.88;2.53;;;16.00;98.00;;;;;;4964357;28;20488;-73
2022/05/08 08:14:25;;;;;;;16.33;2.60;;;16.30;97.90;;;;;;4931745;28;184324;-73
2022/05/08 08:16:51;;;;;;;12.38;2.17;;;16.70;97.60;;;;;;4976729;28;20038;-73
2022/05/08 08:19:17;;;;;;;16.65;2.67;;;16.70;95.60;;;;;;4924846;28;135970;-73
2022/05/08 08:21:44;;;;;;;11.05;2.33;;;16.90;96.00;;;;;;4963910;28;20539;-72
2022/05/08 08:24:10;;;;;;;12.68;2.10;;;17.20;95.00;;;;;;4922800;28;236285;-72
2022/05/08 08:26:39;;;;;;;15.25;2.22;;;17.40;94.40;;;;;;4965417;28;20050;-73
2022/05/08 08:29:05;;;;;;;12.52;2.35;;;17.80;94.50;;;;;;4937637;28;73443;-75
2022/05/08 08:31:31;;;;;;;14.93;2.45;;;18.00;89.80;;;;;;4974525;28;20618;-73
2022/05/08 08:33:58;;;;;;;12.00;2.03;;;17.90;90.60;;;;;;4915266;28;192492;-73
2022/05/08 08:36:24;;;;;;;12.32;2.35;;;18.20;84.50;;;;;;4963041;28;20679;-71
2022/05/08 08:38:50;;;;;;;11.30;2.25;;;18.20;85.70;;;;;;4943802;28;20073;-72
2022/05/08 08:41:25;;;;;;;13.15;2.40;;;18.50;86.60;;;;;;4958428;28;77240;-72
2022/05/08 08:49:25;;;;;;;14.88;2.55;;;18.90;79.90;;;;;;4948412;28;49559;-73
2022/05/08 08:51:52;;;;;;;13.82;2.40;;;19.00;74.60;;;;;;5025211;22;20073;-88
2022/05/08 08:54:19;;;;;;;15.82;2.40;;;18.20;69.20;;;;;;4945578;28;37920;-87
2022/05/08 08:56:46;;;;;;;11.65;2.15;;;17.80;69.50;;;;;;4997020;28;20050;-87
2022/05/08 08:59:13;;;;;;;12.95;2.30;;;17.80;73.30;;;;;;4941260;28;40054;-86
2022/05/08 09:01:41;;;;;;;15.73;2.30;;;18.20;71.90;;;;;;4975071;28;20062;-86
2022/05/08 09:04:11;;;;;;;13.50;2.20;;;18.40;71.90;;;;;;4933316;28;168831;-88
2022/05/08 09:06:42;;;;;;;9.48;2.10;;;18.30;69.30;;;;;;5005740;23;20057;-67
2022/05/08 09:09:20;;;;;;;;;;;18.10;68.20;;;;;;4959555;28;253752;-65
2022/05/08 09:11:46;;;;;;;13.73;2.20;;;18.00;66.80;;;;;;4994614;28;19921;-66
2022/05/08 09:14:27;;;;;;;12.52;2.17;;;18.30;70.80;;;;;;4958507;28;20052;-66
2022/05/08 09:16:54;;;;;;;12.73;2.28;;;18.90;68.10;;;;;;4985246;28;20058;-66
2022/05/08 09:19:32;;;;;;;10.85;1.75;;;19.10;69.00;;;;;;4948778;28;93810;-66
2022/05/08 09:22:00;;;;;;;10.05;2.42;;;19.50;66.60;;;;;;5000159;28;20070;-66
2022/05/08 09:24:26;;;;;;;12.95;2.20;;;19.90;67.20;;;;;;4958719;28;20053;-66
2022/05/08 09:27:15;;;;;;;13.40;2.55;;;20.00;64.20;;;;;;4988172;28;20060;-66
2022/05/08 09:29:43;;;;;;;10.68;2.20;;;20.00;58.40;;;;;;4960273;28;231623;-66
2022/05/08 09:32:10;;;;;;;11.45;2.22;;;20.00;59.60;;;;;;4984844;28;20457;-66
2022/05/08 09:34:59;;;;;;;11.70;2.00;;;19.70;61.60;;;;;;4951802;28;98641;-66
2022/05/08 09:37:26;;;;;;;13.43;2.50;;;20.20;58.50;;;;;;4983089;28;20069;-66
2022/05/08 09:40:16;;;;;;;13.80;2.33;;;20.50;60.30;;;;;;4977981;28;114620;-66
2022/05/08 09:42:42;;;;;;;14.07;2.47;;;20.90;57.50;;;;;;4976156;28;20625;-67
2022/05/08 09:45:09;;;;;;;13.63;2.35;;;20.90;58.50;;;;;;4968542;28;83596;-66
2022/05/08 09:47:49;;;;;;;14.45;2.40;;;20.60;54.80;;;;;;4977361;28;20054;-66
2022/05/08 09:50:16;;;;;;;14.77;2.30;;;20.40;54.10;;;;;;4959703;28;80983;-66
2022/05/08 09:52:47;;;;;;;12.70;2.40;;;20.40;57.00;;;;;;4978650;28;20070;-66
2022/05/08 09:55:14;;;;;;;11.45;2.65;;;19.80;52.50;;;;;;4960354;28;240352;-67
2022/05/08 09:57:40;;;;;;;11.35;2.20;;;19.70;52.70;;;;;;4986560;28;20516;-66
2022/05/08 10:00:09;;;;;;;13.20;2.40;;;19.80;54.70;;;;;;4967867;28;22595;-66
2022/05/08 10:02:36;;;;;;;23.48;2.63;;;20.00;54.40;;;;;;4976078;28;20058;-66
2022/05/08 10:05:03;;;;;;;11.77;2.22;;;20.50;56.30;;;;;;4949492;28;148646;-66
2022/05/08 10:07:30;;;;;;;13.15;2.40;;;21.00;55.10;;;;;;4991792;28;20054;-67
2022/05/08 10:15:34;;;;;;;12.25;2.33;;;21.30;50.60;;;;;;4971012;28;238137;-67
2022/05/08 10:18:22;;;;;;;11.85;2.47;;;21.10;53.20;;;;;;4976015;28;21553;-66
2022/05/08 10:21:06;;;;;;;11.75;2.30;;;21.60;52.90;;;;;;4966244;28;113617;-68
2022/05/08 10:23:38;;;;;;;14.00;2.58;;;22.30;49.80;;;;;;4949229;28;20034;-67
2022/05/08 10:26:23;;;;;;;12.15;2.50;;;22.40;51.50;;;;;;5001507;28;132828;-66
2022/05/08 10:29:02;;;;;;;13.73;2.55;;;22.80;49.10;;;;;;4985538;28;20383;-66
2022/05/08 10:31:55;;;;;;;15.32;2.70;;;23.20;49.50;;;;;;4974730;28;20504;-66
2022/05/08 10:34:34;;;;;;;17.25;2.50;;;22.90;45.70;;;;;;4955037;28;21605;-67
2022/05/08 10:37:12;;;;;;;11.63;2.58;;;22.30;47.20;;;;;;4993122;28;20057;-66
2022/05/08 10:39:42;;;;;;;14.07;2.30;;;22.50;48.10;;;;;;4975988;28;54291;-66
2022/05/08 10:42:27;;;;;;;12.90;2.58;;;22.90;46.90;;;;;;4984559;28;20550;-67
2022/05/08 10:44:54;;;;;;;12.30;2.50;;;23.00;47.60;;;;;;4958569;28;86249;-66
2022/05/08 10:47:43;;;;;;;10.85;2.28;;;23.30;46.70;;;;;;4987699;28;20061;-66
2022/05/08 10:50:11;;;;;;;16.05;2.80;;;22.40;45.00;;;;;;4982567;28;101167;-68
2022/05/08 10:52:45;;;;;;;12.13;2.40;;;22.60;45.60;;;;;;4980212;28;20419;-67
2022/05/08 10:55:14;;;;;;;11.80;2.10;;;22.30;46.50;;;;;;4971315;28;48971;-67
2022/05/08 10:57:43;;;;;;;13.00;2.35;;;22.20;45.00;;;;;;4980868;28;20046;-67
2022/05/08 11:00:30;;;;;;;13.30;2.40;;;22.10;46.40;;;;;;4965203;28;242757;-67
2022/05/08 11:02:58;;;;;;;13.25;2.38;;;22.80;46.80;;;;;;4977452;28;20590;-67
2022/05/08 11:05:29;;;;;;;11.23;2.08;;;23.50;45.10;;;;;;4960017;28;113979;-67
2022/05/08 11:07:58;;;;;;;13.27;2.30;;;23.70;45.10;;;;;;4986031;28;20051;-67
2022/05/08 11:10:35;;;;;;;10.77;2.13;;;23.80;42.80;;;;;;4980602;28;179862;-67
2022/05/08 11:13:04;;;;;;;12.27;2.58;;;23.80;44.20;;;;;;4986133;28;20491;-67
2022/05/08 11:15:33;;;;;;;13.60;2.45;;;23.50;43.60;;;;;;4957381;28;106375;-67
2022/05/08 11:18:03;;;;;;;12.93;2.50;;;23.20;43.90;;;;;;4983945;28;20058;-67
2022/05/08 11:20:30;;;;;;;;;;;23.50;42.90;;;;;;4961592;28;97085;-66
2022/05/08 11:22:57;;;;;;;14.73;2.47;;;23.50;42.00;;;;;;4986578;28;19925;-66
2022/05/08 11:25:23;;;;;;;11.40;2.40;;;23.20;44.20;;;;;;4980990;28;53998;-66
2022/05/08 11:27:53;;;;;;;14.82;2.60;;;23.50;42.60;;;;;;4980534;28;20515;-67
2022/05/08 11:30:26;;;;;;;;;;;23.00;42.80;;;;;;4973002;28;55220;-67
2022/05/08 11:38:22;;;;;;;13.35;3.00;;;23.50;43.70;;;;;;4954822;28;20047;-67
2022/05/08 11:40:50;;;;;;;10.73;2.47;;;23.70;42.60;;;;;;5001670;28;198271;-67
2022/05/08 11:43:42;;;;;;;13.68;2.92;;;23.80;43.20;;;;;;4978680;28;20057;-66
2022/05/08 11:46:10;;;;;;;10.95;2.25;;;24.60;42.00;;;;;;4957720;28;148314;-67
2022/05/08 11:48:40;;;;;;;18.63;3.30;;;24.60;41.60;;;;;;4950941;28;20074;-67
2022/05/08 11:51:59;;;;;;;10.60;2.33;;;24.50;40.20;;;;;;4972254;28;198728;-67
2022/05/08 11:54:32;;;;;;;14.63;2.83;;;24.90;39.10;;;;;;4952166;28;72592;-67
2022/05/08 11:57:14;;;;;;;10.75;2.38;;;25.10;39.70;;;;;;5003122;28;20054;-67
2022/05/08 11:59:43;;;;;;;10.95;2.28;;;25.20;38.20;;;;;;4964079;28;20057;-66
2022/05/08 12:02:10;;;;;;;13.13;2.58;;;25.00;39.60;;;;;;4992050;28;20081;-66
2022/05/08 12:04:37;;;;;;;12.73;2.30;;;24.50;38.20;;;;;;4943225;28;152952;-67
2022/05/08 12:07:08;;;;;;;13.75;2.90;;;24.30;39.60;;;;;;5004979;28;20061;-66
2022/05/08 12:09:36;;;;;;;12.70;2.83;;;24.10;38.90;;;;;;4957799;28;186538;-67
2022/05/08 12:12:30;;;;;;;11.60;2.55;;;24.10;38.70;;;;;;4997740;28;20077;-66
2022/05/08 12:14:59;;;;;;;23.55;3.55;;;24.40;38.90;;;;;;4981048;28;103266;-67
2022/05/08 12:17:30;;;;;;;13.60;2.67;;;24.30;38.60;;;;;;4982686;28;20487;-67
2022/05/08 12:19:59;;;;;;;13.10;2.50;;;24.70;39.20;;;;;;4968332;28;33656;-67
2022/05/08 12:22:28;;;;;;;12.75;2.92;;;24.60;38.20;;;;;;4994531;28;20042;-69
2022/05/08 12:24:58;;;;;;;10.53;2.20;;;24.20;37.30;;;;;;4967015;28;109389;-67
2022/05/08 12:27:24;;;;;;;11.65;2.33;;;23.70;37.20;;;;;;4994098;28;20836;-67
2022/05/08 12:29:51;;;;;;;11.20;2.35;;;23.80;38.30;;;;;;4972893;28;31797;-68
2022/05/08 12:32:18;;;;;;;11.30;2.40;;;23.90;37.10;;;;;;4999041;28;20507;-67
2022/05/08 12:34:44;;;;;;;14.10;2.50;;;24.00;37.10;;;;;;4948673;28;201543;-67
2022/05/08 12:37:12;;;;;;;11.57;2.58;;;24.40;37.80;;;;;;4998441;28;20058;-67
2022/05/08 12:39:39;;;;;;;10.90;2.47;;;24.70;37.70;;;;;;4955694;28;185910;-67
2022/05/08 12:42:06;;;;;;;10.95;2.30;;;24.80;37.70;;;;;;5002895;28;20061;-67
2022/05/08 12:44:36;;;;;;;10.65;2.40;;;24.70;37.60;;;;;;4952682;28;199226;-67
2022/05/08 12:47:05;;;;;;;11.48;2.45;;;24.50;37.80;;;;;;4994605;28;20526;-67
2022/05/08 12:49:32;;;;;;;12.65;2.30;;;24.80;38.10;;;;;;4963174;28;136264;-67
2022/05/08 12:51:58;;;;;;;11.68;2.58;;;25.00;37.20;;;;;;5002019;28;20061;-67
2022/05/08 12:54:24;;;;;;;12.65;2.45;;;25.10;37.60;;;;;;4952751;28;59912;-68
2022/05/08 12:56:51;;;;;;;12.45;2.13;;;24.60;36.30;;;;;;4981551;28;20058;-69
2022/05/08 13:02:02;;;;;;;12.00;2.45;;;25.00;36.80;;;;;;4993772;28;20057;-68
2022/05/08 13:04:28;;;;;;;12.45;2.35;;;24.50;36.50;;;;;;4935248;28;111760;-68
2022/05/08 13:06:55;;;;;;;14.18;2.72;;;24.70;36.80;;;;;;4967358;28;20139;-68
2022/05/08 13:09:21;;;;;;;13.05;2.55;;;25.00;36.70;;;;;;4955203;28;247766;-68
2022/05/08 13:11:48;;;;;;;10.77;2.20;;;25.70;37.60;;;;;;5009765;28;20065;-67
2022/05/08 13:14:14;;;;;;;11.57;2.10;;;25.90;36.90;;;;;;4946362;28;91577;-67
2022/05/08 13:16:41;;;;;;;14.88;2.47;;;25.70;36.70;;;;;;5006678;28;20061;-67
2022/05/08 13:19:07;;;;;;;11.70;2.47;;;25.60;36.90;;;;;;4946943;28;158476;-69